sensor_id;sensor_type;location;lat;lon;timestamp;pressure;altitude;pressure_sealevel;temperature;humidity
38780;BME280;29273;49.962;9.768;2024-02-23T00:00:49;97411.63;;;12.29;51.48
38780;BME280;29273;49.962;9.768;2024-02-23T00:03:14;97390.44;;;12.24;50.54
38780;BME280;29273;49.962;9.768;2024-02-23T00:05:40;97432.34;;;12.22;50.91
38780;BME280;29273;49.962;9.768;2024-02-23T00:08:06;97454.66;;;12.21;50.38
38780;BME280;29273;49.962;9.768;2024-02-23T00:10:32;97449.63;;;12.14;50.79
38780;BME280;29273;49.962;9.768;2024-02-23T00:12:57;97455.72;;;12.10;50.11
38780;BME280;29273;49.962;9.768;2024-02-23T00:15:23;97461.84;;;12.05;50.29
38780;BME280;29273;49.962;9.768;2024-02-23T00:17:50;97455.22;;;12.02;49.87
38780;BME280;29273;49.962;9.768;2024-02-23T00:20:16;97449.13;;;11.97;49.25
38780;BME280;29273;49.962;9.768;2024-02-23T00:22:41;97474.59;;;11.93;48.51
38780;BME280;29273;49.962;9.768;2024-02-23T00:25:07;97473.22;;;11.90;49.21
38780;BME280;29273;49.962;9.768;2024-02-23T00:27:33;97468.47;;;11.82;46.88
38780;BME280;29273;49.962;9.768;2024-02-23T00:29:59;97492.59;;;11.80;48.23
38780;BME280;29273;49.962;9.768;2024-02-23T00:32:24;97503.72;;;11.77;48.36
38780;BME280;29273;49.962;9.768;2024-02-23T00:34:50;97504.03;;;11.76;49.29
38780;BME280;29273;49.962;9.768;2024-02-23T00:37:15;97510.91;;;11.66;48.11
38780;BME280;29273;49.962;9.768;2024-02-23T00:39:41;97525.50;;;11.69;48.35
38780;BME280;29273;49.962;9.768;2024-02-23T00:42:06;97535.28;;;11.63;48.24
38780;BME280;29273;49.962;9.768;2024-02-23T00:44:32;97541.38;;;11.59;47.05
38780;BME280;29273;49.962;9.768;2024-02-23T00:46:58;97559.16;;;11.58;47.33
38780;BME280;29273;49.962;9.768;2024-02-23T00:49:29;97561.00;;;11.53;47.13
38780;BME280;29273;49.962;9.768;2024-02-23T00:51:55;97555.72;;;11.53;46.75
38780;BME280;29273;49.962;9.768;2024-02-23T00:54:21;97553.84;;;11.53;47.80
38780;BME280;29273;49.962;9.768;2024-02-23T00:56:46;97567.63;;;11.50;47.95
38780;BME280;29273;49.962;9.768;2024-02-23T00:59:11;97551.72;;;11.50;48.55
38780;BME280;29273;49.962;9.768;2024-02-23T01:01:37;97563.66;;;11.42;46.95
38780;BME280;29273;49.962;9.768;2024-02-23T01:04:04;97557.78;;;11.40;47.79
38780;BME280;29273;49.962;9.768;2024-02-23T01:06:29;97569.47;;;11.39;47.51
38780;BME280;29273;49.962;9.768;2024-02-23T01:08:55;97567.84;;;11.38;47.90
38780;BME280;29273;49.962;9.768;2024-02-23T01:11:20;97578.97;;;11.40;49.26
38780;BME280;29273;49.962;9.768;2024-02-23T01:13:46;97569.97;;;11.36;48.25
38780;BME280;29273;49.962;9.768;2024-02-23T01:16:11;97585.34;;;11.34;48.04
38780;BME280;29273;49.962;9.768;2024-02-23T01:18:37;97582.97;;;11.33;48.45
38780;BME280;29273;49.962;9.768;2024-02-23T01:21:02;97579.22;;;11.34;48.85
38780;BME280;29273;49.962;9.768;2024-02-23T01:23:28;97570.50;;;11.33;49.07
38780;BME280;29273;49.962;9.768;2024-02-23T01:25:53;97578.44;;;11.33;48.93
38780;BME280;29273;49.962;9.768;2024-02-23T01:28:19;97577.13;;;11.36;49.96
38780;BME280;29273;49.962;9.768;2024-02-23T01:30:44;97570.78;;;11.37;49.76
38780;BME280;29273;49.962;9.768;2024-02-23T01:33:10;97586.13;;;11.35;49.22
38780;BME280;29273;49.962;9.768;2024-02-23T01:35:35;97595.91;;;11.29;47.98
38780;BME280;29273;49.962;9.768;2024-02-23T01:38:02;97594.09;;;11.35;49.07
38780;BME280;29273;49.962;9.768;2024-02-23T01:40:28;97602.28;;;11.33;49.31
38780;BME280;29273;49.962;9.768;2024-02-23T01:43:06;97614.75;;;11.33;49.71
38780;BME280;29273;49.962;9.768;2024-02-23T01:45:32;97601.44;;;11.22;48.71
38780;BME280;29273;49.962;9.768;2024-02-23T01:47:59;97605.16;;;11.16;47.99
38780;BME280;29273;49.962;9.768;2024-02-23T01:50:26;97609.38;;;11.12;47.62
38780;BME280;29273;49.962;9.768;2024-02-23T01:52:52;97608.06;;;11.15;49.13
38780;BME280;29273;49.962;9.768;2024-02-23T01:55:20;97600.09;;;11.09;49.88
38780;BME280;29273;49.962;9.768;2024-02-23T01:57:46;97601.66;;;11.05;48.71
38780;BME280;29273;49.962;9.768;2024-02-23T02:00:16;97610.16;;;11.07;49.49
38780;BME280;29273;49.962;9.768;2024-02-23T02:02:48;97619.38;;;11.00;48.98
38780;BME280;29273;49.962;9.768;2024-02-23T02:05:14;97623.59;;;10.96;47.91
38780;BME280;29273;49.962;9.768;2024-02-23T02:07:40;97630.22;;;10.93;47.48
38780;BME280;29273;49.962;9.768;2024-02-23T02:10:09;97636.56;;;10.92;48.36
38780;BME280;29273;49.962;9.768;2024-02-23T02:12:35;97626.47;;;10.89;47.74
38780;BME280;29273;49.962;9.768;2024-02-23T02:15:01;97629.66;;;10.86;47.22
38780;BME280;29273;49.962;9.768;2024-02-23T02:17:28;97641.56;;;10.88;48.36
38780;BME280;29273;49.962;9.768;2024-02-23T02:19:54;97635.22;;;10.84;47.37
38780;BME280;29273;49.962;9.768;2024-02-23T02:22:19;97642.06;;;10.85;48.16
38780;BME280;29273;49.962;9.768;2024-02-23T02:24:45;97642.59;;;10.82;47.89
38780;BME280;29273;49.962;9.768;2024-02-23T02:27:12;97660.34;;;10.82;48.15
38780;BME280;29273;49.962;9.768;2024-02-23T02:29:37;97647.34;;;10.80;48.03
38780;BME280;29273;49.962;9.768;2024-02-23T02:32:03;97647.06;;;10.77;48.11
38780;BME280;29273;49.962;9.768;2024-02-23T02:34:29;97663.22;;;10.80;48.73
38780;BME280;29273;49.962;9.768;2024-02-23T02:36:55;97663.19;;;10.75;48.29
38780;BME280;29273;49.962;9.768;2024-02-23T02:39:20;97649.97;;;10.75;47.80
38780;BME280;29273;49.962;9.768;2024-02-23T02:41:48;97661.66;;;10.79;49.47
38780;BME280;29273;49.962;9.768;2024-02-23T02:44:14;97657.13;;;10.74;49.06
38780;BME280;29273;49.962;9.768;2024-02-23T02:46:40;97653.38;;;10.70;47.70
38780;BME280;29273;49.962;9.768;2024-02-23T02:49:06;97681.16;;;10.68;46.94
38780;BME280;29273;49.962;9.768;2024-02-23T02:51:31;97664.47;;;10.67;48.40
38780;BME280;29273;49.962;9.768;2024-02-23T02:53:56;97667.06;;;10.62;47.38
38780;BME280;29273;49.962;9.768;2024-02-23T02:56:22;97680.06;;;10.64;47.99
38780;BME280;29273;49.962;9.768;2024-02-23T02:58:48;97673.44;;;10.61;47.31
38780;BME280;29273;49.962;9.768;2024-02-23T03:01:13;97685.59;;;10.62;48.18
38780;BME280;29273;49.962;9.768;2024-02-23T03:03:39;97685.06;;;10.60;48.86
38780;BME280;29273;49.962;9.768;2024-02-23T03:06:04;97689.81;;;10.58;49.03
38780;BME280;29273;49.962;9.768;2024-02-23T03:08:31;97686.63;;;10.56;48.76
38780;BME280;29273;49.962;9.768;2024-02-23T03:10:56;97696.66;;;10.54;48.83
38780;BME280;29273;49.962;9.768;2024-02-23T03:13:22;97703.47;;;10.45;47.52
38780;BME280;29273;49.962;9.768;2024-02-23T03:15:48;97699.53;;;10.47;48.77
38780;BME280;29273;49.962;9.768;2024-02-23T03:18:13;97714.81;;;10.40;48.36
38780;BME280;29273;49.962;9.768;2024-02-23T03:20:41;97723.78;;;10.39;49.03
38780;BME280;29273;49.962;9.768;2024-02-23T03:23:07;97726.16;;;10.35;49.13
38780;BME280;29273;49.962;9.768;2024-02-23T03:25:32;97729.88;;;10.34;49.34
38780;BME280;29273;49.962;9.768;2024-02-23T03:27:58;97742.53;;;10.32;49.50
38780;BME280;29273;49.962;9.768;2024-02-23T03:30:23;97736.63;;;10.25;48.85
38780;BME280;29273;49.962;9.768;2024-02-23T03:32:49;97746.94;;;10.27;49.00
38780;BME280;29273;49.962;9.768;2024-02-23T03:35:14;97753.56;;;10.24;49.33
38780;BME280;29273;49.962;9.768;2024-02-23T03:37:40;97749.84;;;10.25;49.94
38780;BME280;29273;49.962;9.768;2024-02-23T03:40:06;97760.13;;;10.22;49.44
38780;BME280;29273;49.962;9.768;2024-02-23T03:42:31;97771.50;;;10.22;49.37
38780;BME280;29273;49.962;9.768;2024-02-23T03:44:57;97769.34;;;10.19;48.97
38780;BME280;29273;49.962;9.768;2024-02-23T03:47:22;97773.31;;;10.16;48.60
38780;BME280;29273;49.962;9.768;2024-02-23T03:49:48;97780.69;;;10.14;48.23
38780;BME280;29273;49.962;9.768;2024-02-23T03:52:13;97785.16;;;10.14;48.56
38780;BME280;29273;49.962;9.768;2024-02-23T03:54:39;97785.41;;;10.12;48.70
38780;BME280;29273;49.962;9.768;2024-02-23T03:57:04;97793.34;;;10.12;48.25
38780;BME280;29273;49.962;9.768;2024-02-23T03:59:30;97797.28;;;10.10;48.17
38780;BME280;29273;49.962;9.768;2024-02-23T04:01:55;97796.25;;;10.11;48.41
38780;BME280;29273;49.962;9.768;2024-02-23T04:04:21;97788.56;;;10.09;48.43
38780;BME280;29273;49.962;9.768;2024-02-23T04:06:47;97786.97;;;10.08;48.44
38780;BME280;29273;49.962;9.768;2024-02-23T04:09:12;97782.66;;;10.02;47.26
38780;BME280;29273;49.962;9.768;2024-02-23T04:11:38;97788.50;;;10.04;47.92
38780;BME280;29273;49.962;9.768;2024-02-23T04:14:04;97795.34;;;10.00;47.54
38780;BME280;29273;49.962;9.768;2024-02-23T04:16:30;97819.91;;;10.00;47.81
38780;BME280;29273;49.962;9.768;2024-02-23T04:18:56;97829.16;;;9.98;47.90
38780;BME280;29273;49.962;9.768;2024-02-23T04:21:22;97827.50;;;9.92;47.21
38780;BME280;29273;49.962;9.768;2024-02-23T04:23:47;97809.28;;;9.95;48.48
38780;BME280;29273;49.962;9.768;2024-02-23T04:26:13;97828.03;;;9.94;48.08
38780;BME280;29273;49.962;9.768;2024-02-23T04:28:40;97838.13;;;9.97;49.12
38780;BME280;29273;49.962;9.768;2024-02-23T04:31:05;97841.84;;;9.96;48.58
38780;BME280;29273;49.962;9.768;2024-02-23T04:33:31;97846.06;;;9.97;49.24
38780;BME280;29273;49.962;9.768;2024-02-23T04:35:57;97840.22;;;9.95;48.61
38780;BME280;29273;49.962;9.768;2024-02-23T04:38:22;97856.41;;;9.98;48.78
38780;BME280;29273;49.962;9.768;2024-02-23T04:40:48;97855.31;;;9.94;48.03
38780;BME280;29273;49.962;9.768;2024-02-23T04:43:13;97870.66;;;9.97;49.15
38780;BME280;29273;49.962;9.768;2024-02-23T04:45:39;97864.03;;;9.95;48.48
38780;BME280;29273;49.962;9.768;2024-02-23T04:48:04;97867.47;;;9.95;48.00
38780;BME280;29273;49.962;9.768;2024-02-23T04:50:30;97851.34;;;9.97;48.76
38780;BME280;29273;49.962;9.768;2024-02-23T04:52:55;97845.28;;;9.96;49.21
38780;BME280;29273;49.962;9.768;2024-02-23T04:55:21;97847.69;;;9.98;49.56
38780;BME280;29273;49.962;9.768;2024-02-23T04:57:46;97856.16;;;10.00;49.38
38780;BME280;29273;49.962;9.768;2024-02-23T05:00:12;97865.13;;;9.99;49.22
38780;BME280;29273;49.962;9.768;2024-02-23T05:02:37;97864.09;;;10.00;49.36
38780;BME280;29273;49.962;9.768;2024-02-23T05:05:03;97858.81;;;10.00;49.81
38780;BME280;29273;49.962;9.768;2024-02-23T05:07:33;97857.81;;;10.06;50.31
38780;BME280;29273;49.962;9.768;2024-02-23T05:09:59;97857.53;;;10.03;49.72
38780;BME280;29273;49.962;9.768;2024-02-23T05:12:25;97856.47;;;10.04;50.11
38780;BME280;29273;49.962;9.768;2024-02-23T05:14:51;97857.53;;;10.03;49.45
38780;BME280;29273;49.962;9.768;2024-02-23T05:17:16;97838.75;;;10.04;50.13
38780;BME280;29273;49.962;9.768;2024-02-23T05:19:42;97846.66;;;10.04;49.86
38780;BME280;29273;49.962;9.768;2024-02-23T05:22:08;97854.34;;;10.06;50.06
38780;BME280;29273;49.962;9.768;2024-02-23T05:24:33;97850.94;;;10.05;50.03
38780;BME280;29273;49.962;9.768;2024-02-23T05:26:59;97856.75;;;10.07;50.33
38780;BME280;29273;49.962;9.768;2024-02-23T05:29:27;97847.78;;;10.08;50.54
38780;BME280;29273;49.962;9.768;2024-02-23T05:31:52;97849.41;;;10.09;50.74
38780;BME280;29273;49.962;9.768;2024-02-23T05:34:18;97841.97;;;10.06;49.76
38780;BME280;29273;49.962;9.768;2024-02-23T05:36:45;97837.22;;;10.08;50.38
38780;BME280;29273;49.962;9.768;2024-02-23T05:39:14;97835.34;;;10.09;50.46
38780;BME280;29273;49.962;9.768;2024-02-23T05:41:43;97839.06;;;10.08;50.51
38780;BME280;29273;49.962;9.768;2024-02-23T05:44:09;97841.72;;;10.08;50.41
38780;BME280;29273;49.962;9.768;2024-02-23T05:46:36;97848.34;;;10.10;50.84
38780;BME280;29273;49.962;9.768;2024-02-23T05:49:03;97855.72;;;10.08;50.12
38780;BME280;29273;49.962;9.768;2024-02-23T05:51:31;97855.44;;;10.05;50.24
38780;BME280;29273;49.962;9.768;2024-02-23T05:54:00;97843.47;;;10.02;50.32
38780;BME280;29273;49.962;9.768;2024-02-23T05:56:25;97852.16;;;9.97;49.38
38780;BME280;29273;49.962;9.768;2024-02-23T05:58:51;97846.31;;;9.95;50.29
38780;BME280;29273;49.962;9.768;2024-02-23T06:01:18;97854.97;;;9.91;50.32
38780;BME280;29273;49.962;9.768;2024-02-23T06:03:44;97858.91;;;9.88;50.49
38780;BME280;29273;49.962;9.768;2024-02-23T06:06:10;97856.75;;;9.85;50.77
38780;BME280;29273;49.962;9.768;2024-02-23T06:08:36;97858.31;;;9.81;50.62
38780;BME280;29273;49.962;9.768;2024-02-23T06:11:02;97862.47;;;9.77;50.94
38780;BME280;29273;49.962;9.768;2024-02-23T06:13:32;97868.31;;;9.79;51.47
38780;BME280;29273;49.962;9.768;2024-02-23T06:15:59;97877.22;;;9.73;51.13
38780;BME280;29273;49.962;9.768;2024-02-23T06:18:24;97887.22;;;9.71;51.01
38780;BME280;29273;49.962;9.768;2024-02-23T06:20:50;97884.25;;;9.67;50.97
38780;BME280;29273;49.962;9.768;2024-02-23T06:23:16;97887.97;;;9.66;50.73
38780;BME280;29273;49.962;9.768;2024-02-23T06:25:42;97891.09;;;9.63;50.88
38780;BME280;29273;49.962;9.768;2024-02-23T06:28:07;97896.84;;;9.60;50.66
38780;BME280;29273;49.962;9.768;2024-02-23T06:30:33;97891.03;;;9.58;51.08
38780;BME280;29273;49.962;9.768;2024-02-23T06:32:58;97895.72;;;9.56;51.29
38780;BME280;29273;49.962;9.768;2024-02-23T06:35:23;97903.09;;;9.54;51.11
38780;BME280;29273;49.962;9.768;2024-02-23T06:37:49;97903.56;;;9.51;50.85
38780;BME280;29273;49.962;9.768;2024-02-23T06:40:15;97905.44;;;9.50;51.28
38780;BME280;29273;49.962;9.768;2024-02-23T06:42:40;97909.38;;;9.48;51.53
38780;BME280;29273;49.962;9.768;2024-02-23T06:45:06;97914.88;;;9.46;51.53
38780;BME280;29273;49.962;9.768;2024-02-23T06:47:33;97922.00;;;9.45;51.73
38780;BME280;29273;49.962;9.768;2024-02-23T06:49:59;97927.53;;;9.44;51.77
38780;BME280;29273;49.962;9.768;2024-02-23T06:52:24;97933.88;;;9.43;51.76
38780;BME280;29273;49.962;9.768;2024-02-23T06:54:51;97943.59;;;9.42;51.77
38780;BME280;29273;49.962;9.768;2024-02-23T06:57:17;97938.84;;;9.39;52.04
38780;BME280;29273;49.962;9.768;2024-02-23T06:59:43;97936.44;;;9.38;52.17
38780;BME280;29273;49.962;9.768;2024-02-23T07:02:08;97943.53;;;9.37;52.28
38780;BME280;29273;49.962;9.768;2024-02-23T07:04:33;97951.44;;;9.37;52.42
38780;BME280;29273;49.962;9.768;2024-02-23T07:06:59;97947.47;;;9.35;52.82
38780;BME280;29273;49.962;9.768;2024-02-23T07:09:24;97958.03;;;9.35;52.83
38780;BME280;29273;49.962;9.768;2024-02-23T07:11:50;97951.97;;;9.34;52.63
38780;BME280;29273;49.962;9.768;2024-02-23T07:14:15;97960.69;;;9.35;52.77
38780;BME280;29273;49.962;9.768;2024-02-23T07:16:42;97961.47;;;9.35;52.89
38780;BME280;29273;49.962;9.768;2024-02-23T07:19:08;97953.53;;;9.35;52.98
38780;BME280;29273;49.962;9.768;2024-02-23T07:21:34;97956.19;;;9.35;52.63
38780;BME280;29273;49.962;9.768;2024-02-23T07:24:00;97945.06;;;9.33;52.85
38780;BME280;29273;49.962;9.768;2024-02-23T07:26:26;97948.25;;;9.35;52.72
38780;BME280;29273;49.962;9.768;2024-02-23T07:28:53;97956.19;;;9.35;52.97
38780;BME280;29273;49.962;9.768;2024-02-23T07:31:19;97946.41;;;9.36;53.17
38780;BME280;29273;49.962;9.768;2024-02-23T07:33:44;97950.09;;;9.35;53.53
38780;BME280;29273;49.962;9.768;2024-02-23T07:36:17;97949.16;;;9.41;53.86
38780;BME280;29273;49.962;9.768;2024-02-23T07:38:42;97941.47;;;9.39;53.72
38780;BME280;29273;49.962;9.768;2024-02-23T07:41:11;97938.59;;;9.41;53.53
38780;BME280;29273;49.962;9.768;2024-02-23T07:43:36;97948.66;;;9.44;53.66
38780;BME280;29273;49.962;9.768;2024-02-23T07:46:02;97950.03;;;9.47;53.68
38780;BME280;29273;49.962;9.768;2024-02-23T07:48:29;97962.53;;;9.51;53.76
38780;BME280;29273;49.962;9.768;2024-02-23T07:50:55;97971.56;;;9.55;53.82
38780;BME280;29273;49.962;9.768;2024-02-23T07:53:21;97968.44;;;9.58;53.92
38780;BME280;29273;49.962;9.768;2024-02-23T07:55:46;97963.47;;;9.62;54.17
38780;BME280;29273;49.962;9.768;2024-02-23T07:58:12;97958.50;;;9.66;53.86
38780;BME280;29273;49.962;9.768;2024-02-23T08:00:37;97961.50;;;9.69;54.22
38780;BME280;29273;49.962;9.768;2024-02-23T08:03:04;97966.03;;;9.74;54.15
38780;BME280;29273;49.962;9.768;2024-02-23T08:05:29;97959.72;;;9.75;53.62
38780;BME280;29273;49.962;9.768;2024-02-23T08:07:55;97964.53;;;9.78;53.05
38780;BME280;29273;49.962;9.768;2024-02-23T08:10:21;97968.50;;;9.80;53.40
38780;BME280;29273;49.962;9.768;2024-02-23T08:12:47;97961.16;;;9.82;53.59
38780;BME280;29273;49.962;9.768;2024-02-23T08:15:12;97962.50;;;9.85;53.63
38780;BME280;29273;49.962;9.768;2024-02-23T08:17:38;97960.91;;;9.84;52.99
38780;BME280;29273;49.962;9.768;2024-02-23T08:20:04;97961.47;;;9.86;53.16
38780;BME280;29273;49.962;9.768;2024-02-23T08:22:30;97961.25;;;9.88;53.25
38780;BME280;29273;49.962;9.768;2024-02-23T08:24:55;97961.25;;;9.88;53.37
38780;BME280;29273;49.962;9.768;2024-02-23T08:27:21;97963.88;;;9.88;52.72
38780;BME280;29273;49.962;9.768;2024-02-23T08:29:46;97964.44;;;9.90;53.17
38780;BME280;29273;49.962;9.768;2024-02-23T08:32:12;97967.63;;;9.92;53.31
38780;BME280;29273;49.962;9.768;2024-02-23T08:34:38;97966.59;;;9.93;53.21
38780;BME280;29273;49.962;9.768;2024-02-23T08:37:04;97962.09;;;9.93;53.16
38780;BME280;29273;49.962;9.768;2024-02-23T08:39:29;97960.25;;;9.94;52.69
38780;BME280;29273;49.962;9.768;2024-02-23T08:41:55;97952.06;;;9.95;52.67
38780;BME280;29273;49.962;9.768;2024-02-23T08:44:20;97951.28;;;9.95;52.36
38780;BME280;29273;49.962;9.768;2024-02-23T08:46:46;97948.41;;;9.96;52.52
38780;BME280;29273;49.962;9.768;2024-02-23T08:49:13;97946.00;;;9.95;52.29
38780;BME280;29273;49.962;9.768;2024-02-23T08:51:39;97950.50;;;9.94;52.46
38780;BME280;29273;49.962;9.768;2024-02-23T08:54:05;97945.22;;;9.94;52.36
38780;BME280;29273;49.962;9.768;2024-02-23T08:56:34;97958.66;;;9.93;51.96
38780;BME280;29273;49.962;9.768;2024-02-23T08:59:01;97961.56;;;9.91;52.30
38780;BME280;29273;49.962;9.768;2024-02-23T09:01:27;97962.59;;;9.90;52.08
38780;BME280;29273;49.962;9.768;2024-02-23T09:03:53;97958.84;;;9.86;50.56
38780;BME280;29273;49.962;9.768;2024-02-23T09:06:18;97955.59;;;9.84;51.25
38780;BME280;29273;49.962;9.768;2024-02-23T09:08:44;97964.38;;;9.85;51.61
38780;BME280;29273;49.962;9.768;2024-02-23T09:11:10;97964.06;;;9.81;51.33
38780;BME280;29273;49.962;9.768;2024-02-23T09:13:38;97964.06;;;9.81;51.75
38780;BME280;29273;49.962;9.768;2024-02-23T09:16:04;97962.69;;;9.78;51.30
38780;BME280;29273;49.962;9.768;2024-02-23T09:18:29;97964.53;;;9.78;51.47
38780;BME280;29273;49.962;9.768;2024-02-23T09:20:55;97958.19;;;9.79;51.46
38780;BME280;29273;49.962;9.768;2024-02-23T09:23:20;97954.97;;;9.77;51.16
38780;BME280;29273;49.962;9.768;2024-02-23T09:25:46;97949.69;;;9.77;51.47
38780;BME280;29273;49.962;9.768;2024-02-23T09:28:11;97956.03;;;9.76;51.64
38780;BME280;29273;49.962;9.768;2024-02-23T09:30:37;97952.59;;;9.75;51.02
38780;BME280;29273;49.962;9.768;2024-02-23T09:33:03;97962.69;;;9.78;51.46
38780;BME280;29273;49.962;9.768;2024-02-23T09:35:29;97965.31;;;9.78;51.31
38780;BME280;29273;49.962;9.768;2024-02-23T09:37:54;97969.34;;;9.81;51.50
38780;BME280;29273;49.962;9.768;2024-02-23T09:40:20;97967.00;;;9.85;51.49
38780;BME280;29273;49.962;9.768;2024-02-23T09:42:56;97975.09;;;9.95;53.16
38780;BME280;29273;49.962;9.768;2024-02-23T09:45:24;97980.38;;;9.95;52.07
38780;BME280;29273;49.962;9.768;2024-02-23T09:47:50;97977.25;;;9.98;51.78
38780;BME280;29273;49.962;9.768;2024-02-23T09:50:17;97988.44;;;10.05;51.61
38780;BME280;29273;49.962;9.768;2024-02-23T09:52:45;98000.94;;;10.10;50.99
38780;BME280;29273;49.962;9.768;2024-02-23T09:55:12;97999.41;;;10.14;51.22
38780;BME280;29273;49.962;9.768;2024-02-23T09:57:37;97998.94;;;10.17;50.39
38780;BME280;29273;49.962;9.768;2024-02-23T10:00:03;98005.34;;;10.21;49.75
38780;BME280;29273;49.962;9.768;2024-02-23T10:02:39;98013.66;;;10.30;50.16
38780;BME280;29273;49.962;9.768;2024-02-23T10:05:06;98003.66;;;10.32;49.84
38780;BME280;29273;49.962;9.768;2024-02-23T10:07:32;98006.63;;;10.35;50.50
38780;BME280;29273;49.962;9.768;2024-02-23T10:09:58;98005.09;;;10.40;51.09
38780;BME280;29273;49.962;9.768;2024-02-23T10:12:23;98010.69;;;10.43;49.31
38780;BME280;29273;49.962;9.768;2024-02-23T10:14:49;98000.97;;;10.49;49.00
38780;BME280;29273;49.962;9.768;2024-02-23T10:17:14;98009.56;;;10.56;49.43
38780;BME280;29273;49.962;9.768;2024-02-23T10:19:40;98019.38;;;10.61;49.46
38780;BME280;29273;49.962;9.768;2024-02-23T10:22:05;98020.19;;;10.61;48.72
38780;BME280;29273;49.962;9.768;2024-02-23T10:24:31;98017.38;;;10.68;48.96
38780;BME280;29273;49.962;9.768;2024-02-23T10:26:56;98013.41;;;10.70;49.36
38780;BME280;29273;49.962;9.768;2024-02-23T10:29:23;98021.41;;;10.76;49.63
38780;BME280;29273;49.962;9.768;2024-02-23T10:31:51;98023.09;;;10.82;50.50
38780;BME280;29273;49.962;9.768;2024-02-23T10:34:19;98025.50;;;10.83;49.50
38780;BME280;29273;49.962;9.768;2024-02-23T10:36:45;98040.59;;;10.83;47.90
38780;BME280;29273;49.962;9.768;2024-02-23T10:39:16;98029.81;;;10.89;49.03
38780;BME280;29273;49.962;9.768;2024-02-23T10:41:47;98036.44;;;10.92;49.41
38780;BME280;29273;49.962;9.768;2024-02-23T10:44:17;98035.91;;;10.90;48.35
38780;BME280;29273;49.962;9.768;2024-02-23T10:46:44;98033.78;;;10.92;48.67
38780;BME280;29273;49.962;9.768;2024-02-23T10:49:10;98034.69;;;10.98;48.81
38780;BME280;29273;49.962;9.768;2024-02-23T10:51:39;98031.00;;;11.04;50.10
38780;BME280;29273;49.962;9.768;2024-02-23T10:54:06;98031.34;;;11.07;49.28
38780;BME280;29273;49.962;9.768;2024-02-23T10:56:31;98022.31;;;11.08;48.88
38780;BME280;29273;49.962;9.768;2024-02-23T10:58:57;98024.25;;;11.13;49.00
38780;BME280;29273;49.962;9.768;2024-02-23T11:01:24;98029.09;;;11.21;49.74
38780;BME280;29273;49.962;9.768;2024-02-23T11:03:51;98018.78;;;11.25;49.01
38780;BME280;29273;49.962;9.768;2024-02-23T11:06:19;98031.56;;;11.28;48.36
38780;BME280;29273;49.962;9.768;2024-02-23T11:08:49;98029.50;;;11.35;49.86
38780;BME280;29273;49.962;9.768;2024-02-23T11:11:16;98036.91;;;11.33;48.68
38780;BME280;29273;49.962;9.768;2024-02-23T11:13:45;98030.28;;;11.36;48.67
38780;BME280;29273;49.962;9.768;2024-02-23T11:16:22;98025.84;;;11.41;49.28
38780;BME280;29273;49.962;9.768;2024-02-23T11:18:48;98021.84;;;11.39;47.65
38780;BME280;29273;49.962;9.768;2024-02-23T11:21:14;98021.84;;;11.39;47.98
38780;BME280;29273;49.962;9.768;2024-02-23T11:23:49;98021.63;;;11.45;49.16
38780;BME280;29273;49.962;9.768;2024-02-23T11:26:17;98007.84;;;11.43;48.21
38780;BME280;29273;49.962;9.768;2024-02-23T11:28:52;98010.28;;;11.50;49.59
38780;BME280;29273;49.962;9.768;2024-02-23T11:31:23;98008.44;;;11.51;49.60
38780;BME280;29273;49.962;9.768;2024-02-23T11:33:56;98007.63;;;11.50;48.74
38780;BME280;29273;49.962;9.768;2024-02-23T11:38:48;98005.72;;;11.45;47.63
38780;BME280;29273;49.962;9.768;2024-02-23T11:41:13;98001.25;;;11.46;48.47
38780;BME280;29273;49.962;9.768;2024-02-23T11:43:41;97998.34;;;11.47;48.74
38780;BME280;29273;49.962;9.768;2024-02-23T11:46:07;98003.91;;;11.46;48.01
38780;BME280;29273;49.962;9.768;2024-02-23T11:48:32;97995.13;;;11.45;47.65
38780;BME280;29273;49.962;9.768;2024-02-23T11:50:58;97992.47;;;11.45;47.72
38780;BME280;29273;49.962;9.768;2024-02-23T11:53:24;97995.94;;;11.46;47.89
38780;BME280;29273;49.962;9.768;2024-02-23T11:55:52;97986.44;;;11.50;48.44
38780;BME280;29273;49.962;9.768;2024-02-23T11:58:17;97989.31;;;11.48;47.66
38780;BME280;29273;49.962;9.768;2024-02-23T12:00:43;97982.44;;;11.47;47.23
38780;BME280;29273;49.962;9.768;2024-02-23T12:03:11;97977.94;;;11.48;46.80
38780;BME280;29273;49.962;9.768;2024-02-23T12:05:36;97981.13;;;11.50;46.71
38780;BME280;29273;49.962;9.768;2024-02-23T12:08:02;97980.34;;;11.50;46.44
38780;BME280;29273;49.962;9.768;2024-02-23T12:10:28;97981.13;;;11.50;46.32
38780;BME280;29273;49.962;9.768;2024-02-23T12:12:54;97973.97;;;11.51;47.22
38780;BME280;29273;49.962;9.768;2024-02-23T12:15:21;97981.41;;;11.54;47.65
38780;BME280;29273;49.962;9.768;2024-02-23T12:17:47;97976.69;;;11.56;48.31
38780;BME280;29273;49.962;9.768;2024-02-23T12:20:13;97973.75;;;11.57;47.65
38780;BME280;29273;49.962;9.768;2024-02-23T12:22:40;97966.13;;;11.61;46.91
38780;BME280;29273;49.962;9.768;2024-02-23T12:25:06;97966.13;;;11.61;46.54
38780;BME280;29273;49.962;9.768;2024-02-23T12:27:32;97972.22;;;11.61;46.32
38780;BME280;29273;49.962;9.768;2024-02-23T12:29:57;97970.34;;;11.62;46.63
38780;BME280;29273;49.962;9.768;2024-02-23T12:32:23;97976.75;;;11.66;47.11
38780;BME280;29273;49.962;9.768;2024-02-23T12:34:49;97972.78;;;11.69;46.70
38780;BME280;29273;49.962;9.768;2024-02-23T12:37:15;97983.13;;;11.70;46.67
38780;BME280;29273;49.962;9.768;2024-02-23T12:39:41;97983.69;;;11.72;46.51
38780;BME280;29273;49.962;9.768;2024-02-23T12:42:07;97982.38;;;11.75;46.24
38780;BME280;29273;49.962;9.768;2024-02-23T12:44:33;97985.81;;;11.75;46.10
38780;BME280;29273;49.962;9.768;2024-02-23T12:46:58;97984.25;;;11.74;45.72
38780;BME280;29273;49.962;9.768;2024-02-23T12:49:24;97976.03;;;11.76;46.38
38780;BME280;29273;49.962;9.768;2024-02-23T12:51:49;97969.91;;;11.75;46.19
38780;BME280;29273;49.962;9.768;2024-02-23T12:54:15;97976.56;;;11.78;46.77
38780;BME280;29273;49.962;9.768;2024-02-23T12:56:40;97965.97;;;11.78;46.90
38780;BME280;29273;49.962;9.768;2024-02-23T12:59:06;97966.25;;;11.81;46.34
38780;BME280;29273;49.962;9.768;2024-02-23T13:01:32;97958.59;;;11.85;46.37